Time;durP1;ratioP1;P1;durP2;ratioP2;P2;SDS_P1;SDS_P2;PMS_P1;PMS_P2;Temp;Humidity;BMP_temperature;BMP_pressure;BME280_temperature;BME280_humidity;BME280_pressure;Samples;Min_cycle;Max_cycle;Signal;HPM_P1;HPM_P2
2022/07/24 00:01:39;;;;;;;10.53;6.90;;;;;;;25.41;44.92;97175.16;6271861;22;20953;-74
2022/07/24 00:04:07;;;;;;;12.30;7.07;;;;;;;25.12;45.71;97161.41;6272238;22;20199;-70
2022/07/24 00:06:34;;;;;;;13.70;7.67;;;;;;;24.69;45.82;97158.75;6271005;22;20164;-70
2022/07/24 00:09:01;;;;;;;13.53;7.30;;;;;;;24.57;46.80;97163.47;6271999;22;20792;-70
2022/07/24 00:11:29;;;;;;;13.37;7.47;;;;;;;24.21;47.67;97159.97;6270915;22;20182;-70
2022/07/24 00:13:56;;;;;;;13.43;7.37;;;;;;;24.15;47.75;97159.78;6272220;22;20693;-69
2022/07/24 00:16:23;;;;;;;14.27;7.00;;;;;;;24.05;47.45;97159.84;6271184;22;20230;-70
2022/07/24 00:18:50;;;;;;;13.17;6.47;;;;;;;23.94;48.29;97154.75;6271838;22;20169;-72
2022/07/24 00:21:17;;;;;;;10.37;5.90;;;;;;;24.00;48.54;97151.50;6271861;22;20239;-71
2022/07/24 00:23:44;;;;;;;14.53;6.03;;;;;;;24.14;48.00;97155.47;6270650;22;20163;-71
2022/07/24 00:26:12;;;;;;;8.63;5.43;;;;;;;24.53;46.91;97155.97;6271272;22;20165;-70
2022/07/24 00:28:39;;;;;;;11.60;5.40;;;;;;;24.80;46.06;97151.41;6270507;22;20185;-70
2022/07/24 00:31:06;;;;;;;10.63;6.03;;;;;;;25.01;46.11;97146.59;6271881;22;20168;-71
2022/07/24 00:33:33;;;;;;;8.93;5.60;;;;;;;25.02;45.72;97135.00;6270795;22;20171;-70
2022/07/24 00:36:00;;;;;;;6.97;5.20;;;;;;;25.02;46.31;97148.25;6295861;22;20245;-72
2022/07/24 00:38:27;;;;;;;7.63;5.53;;;;;;;25.09;45.99;97145.81;6271573;22;20172;-72
2022/07/24 00:40:54;;;;;;;9.20;5.07;;;;;;;25.15;46.80;97144.31;6270686;22;20196;-72
2022/07/24 00:43:21;;;;;;;8.70;5.20;;;;;;;24.95;46.07;97138.44;6271895;22;20172;-72
2022/07/24 00:45:48;;;;;;;8.13;5.57;;;;;;;25.03;46.85;97141.97;6270614;22;20505;-70
2022/07/24 00:48:16;;;;;;;6.63;5.10;;;;;;;25.05;46.35;97144.44;6271902;22;20623;-70
2022/07/24 00:50:44;;;;;;;7.90;5.27;;;;;;;24.92;46.63;97136.09;6270528;22;20166;-71
2022/07/24 00:53:11;;;;;;;9.37;5.30;;;;;;;24.81;46.64;97137.16;6271228;22;20480;-73
2022/07/24 00:55:38;;;;;;;8.17;5.23;;;;;;;24.72;47.30;97131.94;6271420;22;20194;-71
2022/07/24 00:58:05;;;;;;;8.97;5.27;;;;;;;24.87;46.94;97136.53;6270645;22;20163;-72
2022/07/24 01:00:32;;;;;;;10.00;5.20;;;;;;;24.77;47.54;97135.81;6244571;22;20558;-72
2022/07/24 01:02:59;;;;;;;7.80;5.30;;;;;;;24.72;46.64;97138.09;6270110;22;20164;-73
2022/07/24 01:05:26;;;;;;;9.47;5.60;;;;;;;24.82;46.79;97130.06;6271635;22;20189;-72
2022/07/24 01:07:53;;;;;;;9.57;5.20;;;;;;;24.82;47.34;97124.75;6270533;22;20168;-72
2022/07/24 01:10:20;;;;;;;10.20;6.20;;;;;;;24.82;46.76;97130.06;6271530;22;20162;-72
2022/07/24 01:12:47;;;;;;;13.90;7.33;;;;;;;24.75;46.76;97131.69;6271204;22;20175;-72
2022/07/24 01:15:14;;;;;;;13.73;8.80;;;;;;;24.68;46.62;97122.66;6270876;22;20167;-71
2022/07/24 01:17:42;;;;;;;17.13;9.73;;;;;;;24.64;46.53;97113.34;6271401;22;20194;-72
2022/07/24 01:20:10;;;;;;;17.43;9.47;;;;;;;24.51;47.60;97126.16;6270028;22;20195;-71
2022/07/24 01:22:37;;;;;;;15.50;9.30;;;;;;;24.40;47.37;97118.47;6270949;22;20173;-71
2022/07/24 01:25:05;;;;;;;13.60;7.60;;;;;;;24.30;47.30;97109.78;6270281;22;20222;-71
2022/07/24 01:27:32;;;;;;;11.77;8.10;;;;;;;24.23;47.51;97112.22;6271360;22;20236;-71
2022/07/24 01:29:59;;;;;;;9.53;6.53;;;;;;;23.76;47.87;97118.66;6271061;22;20162;-71
2022/07/24 01:32:26;;;;;;;13.50;6.40;;;;;;;23.63;48.51;97116.38;6270352;22;20169;-71
2022/07/24 01:34:53;;;;;;;11.87;7.53;;;;;;;23.70;48.11;97116.63;6271254;22;20166;-71
2022/07/24 01:37:20;;;;;;;9.90;6.47;;;;;;;23.54;48.13;97104.03;6293938;22;20165;-74
2022/07/24 01:39:47;;;;;;;7.90;6.17;;;;;;;23.70;48.12;97108.69;6271093;22;20572;-72
2022/07/24 01:42:13;;;;;;;8.63;5.83;;;;;;;23.51;48.48;97114.09;6267931;22;20628;-72
2022/07/24 01:44:40;;;;;;;12.20;6.60;;;;;;;23.23;48.96;97105.28;6271364;22;20497;-71
2022/07/24 01:47:07;;;;;;;18.60;6.73;;;;;;;22.74;50.59;97109.09;6270931;22;20232;-70
2022/07/24 01:49:34;;;;;;;11.43;6.40;;;;;;;22.36;51.69;97112.59;6270394;22;20172;-71
2022/07/24 01:52:01;;;;;;;8.90;6.20;;;;;;;22.31;52.00;97104.28;6271123;22;20168;-71
2022/07/24 01:54:28;;;;;;;12.13;6.73;;;;;;;22.14;52.64;97104.97;6270041;22;20623;-72
2022/07/24 01:56:55;;;;;;;10.70;6.20;;;;;;;21.99;53.07;97095.00;6271172;22;20170;-71
2022/07/24 01:59:23;;;;;;;8.70;6.50;;;;;;;21.93;53.39;97100.84;6269814;22;20220;-71
2022/07/24 02:01:52;;;;;;;10.50;5.83;;;;;;;22.04;53.14;97105.97;6270531;22;20285;-72
2022/07/24 02:04:20;;;;;;;10.20;6.60;;;;;;;22.31;52.76;97109.56;6268817;22;20532;-71
2022/07/24 02:06:47;;;;;;;9.33;7.33;;;;;;;22.21;53.00;97102.63;6270155;22;20159;-71
2022/07/24 02:09:14;;;;;;;10.07;6.87;;;;;;;21.93;54.03;97104.28;6271291;22;20174;-70
2022/07/24 02:11:41;;;;;;;11.20;6.90;;;;;;;21.81;54.46;97100.09;6269563;22;20485;-70
2022/07/24 02:14:09;;;;;;;11.10;7.03;;;;;;;21.70;55.11;97093.13;6269344;22;20169;-69
2022/07/24 02:16:36;;;;;;;7.67;6.37;;;;;;;21.68;54.98;97094.22;6293848;22;20447;-69
2022/07/24 02:19:03;;;;;;;10.13;6.10;;;;;;;21.64;55.12;97101.59;6270934;22;20249;-69
2022/07/24 02:21:31;;;;;;;10.20;6.50;;;;;;;21.90;54.46;97098.47;6270239;22;20202;-69
2022/07/24 02:23:58;;;;;;;12.13;6.83;;;;;;;22.03;53.89;97106.94;6270047;22;20161;-70
2022/07/24 02:26:25;;;;;;;8.27;6.37;;;;;;;22.43;52.99;97102.31;6271075;22;20233;-70
2022/07/24 02:28:52;;;;;;;10.73;6.90;;;;;;;22.61;52.50;97093.56;6269842;22;20174;-70
2022/07/24 02:31:19;;;;;;;10.33;6.87;;;;;;;22.77;52.24;97097.41;6270811;22;20229;-70
2022/07/24 02:33:46;;;;;;;9.20;6.87;;;;;;;23.03;51.29;97101.06;6269496;22;20187;-70
2022/07/24 02:36:13;;;;;;;13.40;7.43;;;;;;;23.12;51.02;97087.81;6270860;22;20173;-71
2022/07/24 02:38:41;;;;;;;13.20;7.20;;;;;;;23.26;50.41;97102.38;6270276;22;20170;-70
2022/07/24 02:41:08;;;;;;;16.20;8.73;;;;;;;23.21;50.58;97094.03;6269662;22;20256;-70
2022/07/24 02:43:35;;;;;;;14.00;8.47;;;;;;;23.22;50.44;97101.84;6269190;22;20167;-70
2022/07/24 02:46:02;;;;;;;14.60;8.00;;;;;;;23.16;50.75;97101.59;6269581;22;20168;-70
2022/07/24 02:48:29;;;;;;;13.93;7.90;;;;;;;22.91;51.35;97102.22;6270961;22;20247;-70
2022/07/24 02:50:56;;;;;;;12.43;6.90;;;;;;;22.99;51.24;97097.91;6268127;22;20173;-70
2022/07/24 02:53:23;;;;;;;10.27;7.73;;;;;;;22.71;52.08;97100.63;6270715;22;20171;-69
2022/07/24 02:55:50;;;;;;;14.17;7.43;;;;;;;22.26;53.74;97106.50;6294156;22;20161;-69
2022/07/24 02:58:17;;;;;;;12.80;8.17;;;;;;;21.89;54.68;97102.91;6269938;22;20171;-69
2022/07/24 03:00:44;;;;;;;14.73;9.33;;;;;;;21.50;55.81;97088.81;6268786;22;20198;-69
2022/07/24 03:03:11;;;;;;;13.73;9.93;;;;;;;21.34;56.72;97095.56;6267498;22;20257;-69
2022/07/24 03:05:38;;;;;;;15.27;8.53;;;;;;;21.30;57.19;97088.91;6270612;22;20168;-69
2022/07/24 03:08:05;;;;;;;15.90;8.90;;;;;;;21.36;57.88;97098.91;6267610;22;20173;-70
2022/07/24 03:10:33;;;;;;;10.67;7.53;;;;;;;21.37;58.06;97090.03;6270557;22;20168;-71
2022/07/24 03:13:00;;;;;;;12.27;7.03;;;;;;;21.27;57.83;97091.81;6268511;22;20174;-70
2022/07/24 03:15:27;;;;;;;9.10;7.27;;;;;;;21.49;57.03;97081.88;6270164;22;20168;-70
2022/07/24 03:17:56;;;;;;;12.00;8.10;;;;;;;21.51;57.04;97094.91;6270666;22;20499;-69
2022/07/24 03:20:28;;;;;;;10.53;7.70;;;;;;;21.55;56.92;97086.63;6269370;22;20708;-69
2022/07/24 03:22:55;;;;;;;15.27;7.20;;;;;;;21.40;57.38;97079.22;6270473;22;20248;-69
2022/07/24 03:25:23;;;;;;;12.40;7.80;;;;;;;21.38;56.91;97086.41;6269387;22;20165;-72
2022/07/24 03:27:50;;;;;;;11.63;7.70;;;;;;;21.29;57.46;97081.97;6271068;22;20618;-70
2022/07/24 03:30:18;;;;;;;13.67;7.20;;;;;;;21.24;57.31;97073.63;6270325;22;20579;-70
2022/07/24 03:32:45;;;;;;;10.50;6.57;;;;;;;21.35;57.08;97076.16;6269982;22;20225;-72
2022/07/24 03:35:13;;;;;;;11.73;7.03;;;;;;;21.41;57.15;97070.34;6270955;22;20645;-72
2022/07/24 03:37:40;;;;;;;11.60;7.07;;;;;;;21.45;56.86;97071.75;6269447;22;20215;-70
2022/07/24 03:40:07;;;;;;;10.37;7.47;;;;;;;21.59;56.44;97080.09;6270382;22;20226;-70
2022/07/24 03:42:35;;;;;;;11.30;7.30;;;;;;;21.60;56.36;97080.91;6268971;22;20649;-71
2022/07/24 03:45:02;;;;;;;10.87;6.70;;;;;;;21.57;56.10;97075.94;6270494;22;20189;-71
2022/07/24 03:47:30;;;;;;;11.13;7.03;;;;;;;21.79;55.91;97073.03;6271784;22;20166;-71
2022/07/24 03:49:57;;;;;;;10.50;7.03;;;;;;;22.25;54.74;97080.25;6271740;22;20170;-71
2022/07/24 03:52:24;;;;;;;9.47;6.73;;;;;;;22.25;54.51;97077.63;6270690;22;20216;-72
2022/07/24 03:54:51;;;;;;;11.37;6.53;;;;;;;22.33;54.76;97070.66;6271175;22;20587;-72
2022/07/24 03:57:18;;;;;;;9.83;7.53;;;;;;;22.33;54.38;97073.31;6272225;22;20166;-71
2022/07/24 03:59:45;;;;;;;10.10;7.20;;;;;;;22.37;54.31;97072.06;6271162;22;20171;-70
2022/07/24 04:02:12;;;;;;;13.03;7.40;;;;;;;22.30;54.51;97083.28;6269894;22;20198;-71
2022/07/24 04:04:40;;;;;;;14.70;8.10;;;;;;;22.35;54.48;97083.72;6271426;22;20190;-70
2022/07/24 04:07:07;;;;;;;9.90;7.73;;;;;;;22.57;54.44;97080.75;6271159;22;20707;-71
2022/07/24 04:09:34;;;;;;;9.57;6.87;;;;;;;22.60;54.61;97084.00;6270304;22;20171;-72
2022/07/24 04:12:01;;;;;;;11.30;6.70;;;;;;;22.80;54.54;97089.19;6270742;22;20167;-71
2022/07/24 04:14:28;;;;;;;10.23;7.23;;;;;;;22.55;55.01;97080.91;6271999;22;20197;-72
2022/07/24 04:16:55;;;;;;;10.07;7.17;;;;;;;22.76;54.72;97093.09;6270781;22;20191;-71
2022/07/24 04:19:24;;;;;;;11.80;7.80;;;;;;;22.95;53.94;97085.13;6270357;22;20253;-71
2022/07/24 04:21:50;;;;;;;9.67;6.67;;;;;;;23.04;53.02;97092.19;6271122;22;20211;-71
2022/07/24 04:24:17;;;;;;;11.87;7.77;;;;;;;22.77;54.15;97092.13;6271185;22;20167;-71
2022/07/24 04:26:44;;;;;;;14.87;8.97;;;;;;;22.75;54.40;97094.91;6271948;22;20165;-72
2022/07/24 04:29:11;;;;;;;14.23;8.03;;;;;;;22.93;54.55;97089.72;6270531;22;20171;-71
2022/07/24 04:31:38;;;;;;;12.63;8.50;;;;;;;22.76;55.36;97101.00;6271659;22;20168;-71
2022/07/24 04:34:05;;;;;;;11.97;7.97;;;;;;;22.77;55.36;97100.06;6294476;22;20164;-71
2022/07/24 04:36:32;;;;;;;11.80;7.87;;;;;;;23.21;54.38;97094.88;6271705;22;20253;-71
2022/07/24 04:38:59;;;;;;;11.93;7.40;;;;;;;23.38;53.75;97099.41;6271099;22;20512;-73
2022/07/24 04:41:34;;;;;;;14.20;7.97;;;;;;;23.30;53.68;97096.66;6270473;22;20207;-72
2022/07/24 04:44:01;;;;;;;9.60;8.33;;;;;;;23.34;53.82;97089.28;6271413;22;20255;-72
2022/07/24 04:46:28;;;;;;;12.23;8.40;;;;;;;23.34;54.03;97092.75;6270793;22;20546;-72
2022/07/24 04:48:55;;;;;;;11.77;7.77;;;;;;;23.65;53.79;97095.91;6273379;22;20198;-72
2022/07/24 04:51:22;;;;;;;11.03;7.93;;;;;;;23.99;52.24;97096.91;6270318;22;20633;-73
2022/07/24 04:53:52;;;;;;;13.53;7.77;;;;;;;23.99;52.21;97101.34;6271711;22;20166;-74
2022/07/24 04:56:21;;;;;;;8.73;7.00;;;;;;;24.16;51.87;97101.41;6271056;22;20169;-72
2022/07/24 04:58:48;;;;;;;11.20;7.97;;;;;;;24.29;51.92;97098.38;6270623;22;20193;-72
2022/07/24 05:01:15;;;;;;;11.40;8.23;;;;;;;24.44;51.00;97098.66;6271462;22;20533;-71
2022/07/24 05:03:43;;;;;;;9.27;7.13;;;;;;;24.45;51.47;97097.66;6270218;22;20216;-71
2022/07/24 05:06:10;;;;;;;11.73;7.10;;;;;;;24.56;51.60;97100.91;6271645;22;20197;-71
2022/07/24 05:08:37;;;;;;;11.07;7.23;;;;;;;24.77;50.85;97093.44;6270534;22;20183;-72
2022/07/24 05:11:04;;;;;;;11.27;7.20;;;;;;;25.34;49.05;97099.88;6295207;22;20221;-72
2022/07/24 05:13:31;;;;;;;11.77;7.93;;;;;;;25.44;48.40;97084.69;6295429;22;20202;-73
2022/07/24 05:15:58;;;;;;;9.40;7.17;;;;;;;25.65;48.79;97095.69;6270684;22;20217;-72
2022/07/24 05:18:25;;;;;;;9.80;6.77;;;;;;;25.85;48.16;97112.16;6271381;22;20222;-72
2022/07/24 05:20:52;;;;;;;10.67;7.10;;;;;;;25.77;47.91;97094.41;6269474;22;20225;-72
2022/07/24 05:23:19;;;;;;;12.87;6.77;;;;;;;26.09;47.03;97092.81;6269384;22;20249;-72
2022/07/24 05:25:45;;;;;;;11.40;5.97;;;;;;;26.45;46.82;97083.50;6269591;22;20198;-72
2022/07/24 05:28:16;;;;;;;9.33;6.20;;;;;;;26.93;44.87;97080.81;6294938;22;20165;-71
2022/07/24 05:30:43;;;;;;;8.00;5.53;;;;;;;27.26;44.08;97090.34;6270591;22;20172;-73
2022/07/24 05:33:10;;;;;;;10.20;6.00;;;;;;;27.56;44.33;97080.75;6270238;22;20218;-72
2022/07/24 05:35:37;;;;;;;7.27;5.93;;;;;;;28.04;42.95;97085.00;6271177;22;20177;-72
2022/07/24 05:38:04;;;;;;;8.57;5.90;;;;;;;28.05;42.85;97083.97;6268195;22;20553;-72
2022/07/24 05:40:31;;;;;;;9.33;6.43;;;;;;;28.28;42.20;97079.47;6271047;22;20197;-72
2022/07/24 05:42:58;;;;;;;8.17;5.70;;;;;;;28.01;42.34;97072.00;6269656;22;20197;-70
2022/07/24 05:45:25;;;;;;;8.87;7.07;;;;;;;27.99;42.67;97072.19;6271031;22;20164;-71
2022/07/24 05:47:52;;;;;;;9.93;6.20;;;;;;;28.23;42.39;97047.22;6270624;22;20164;-72
2022/07/24 05:50:19;;;;;;;10.43;6.53;;;;;;;28.49;41.05;97058.31;6270141;22;20161;-75
2022/07/24 05:52:46;;;;;;;9.70;6.60;;;;;;;28.75;40.92;97064.06;6295186;22;20240;-73
2022/07/24 05:55:13;;;;;;;11.60;6.70;;;;;;;28.79;41.18;97076.03;6269886;22;20172;-71
2022/07/24 05:57:46;;;;;;;11.90;9.93;;;;;;;29.05;41.30;97072.94;6271250;22;20196;-73
2022/07/24 06:00:15;;;;;;;8.37;5.70;;;;;;;29.17;40.27;97065.31;6269844;22;20161;-72
2022/07/24 06:02:45;;;;;;;11.57;6.07;;;;;;;29.24;39.65;97063.56;6268656;22;20314;-72
2022/07/24 06:05:14;;;;;;;10.33;6.60;;;;;;;29.30;39.92;97057.47;6270597;22;20686;-73
2022/07/24 06:07:42;;;;;;;10.83;6.60;;;;;;;29.39;39.60;97056.34;6269471;22;20161;-72
2022/07/24 06:10:10;;;;;;;6.90;5.93;;;;;;;29.41;38.72;97060.50;6270999;22;20168;-72
2022/07/24 06:12:41;;;;;;;11.50;6.23;;;;;;;29.47;38.76;97058.94;6269031;22;20168;-73
2022/07/24 06:15:10;;;;;;;9.77;5.73;;;;;;;29.77;38.57;97057.03;6270568;22;20248;-72
2022/07/24 06:17:38;;;;;;;12.00;6.50;;;;;;;29.90;38.07;97046.50;6269408;22;20223;-73
2022/07/24 06:20:06;;;;;;;9.93;5.53;;;;;;;29.77;37.14;97054.38;6270036;22;20160;-73
2022/07/24 06:22:34;;;;;;;7.87;4.87;;;;;;;29.70;37.38;97060.44;6294655;22;20193;-72
2022/07/24 06:25:00;;;;;;;7.67;5.07;;;;;;;29.68;38.26;97054.47;6269613;22;20168;-73
2022/07/24 06:27:29;;;;;;;11.40;5.90;;;;;;;29.62;38.68;97057.03;6270812;22;20244;-71
2022/07/24 06:29:56;;;;;;;26.97;7.13;;;;;;;29.79;37.81;97050.50;6267752;22;20161;-70
2022/07/24 06:32:23;;;;;;;9.37;5.10;;;;;;;30.00;37.66;97061.22;6270541;22;20176;-72
2022/07/24 06:34:50;;;;;;;5.97;4.83;;;;;;;30.25;37.36;97053.63;6269825;22;20227;-71
2022/07/24 06:37:17;;;;;;;8.73;5.50;;;;;;;30.06;37.19;97054.25;6269889;22;20183;-71
2022/07/24 06:39:47;;;;;;;9.23;5.50;;;;;;;30.00;37.22;97050.53;6270963;22;20203;-72
2022/07/24 06:42:13;;;;;;;12.80;7.30;;;;;;;30.29;37.83;97049.56;6269251;22;20250;-72
2022/07/24 06:44:40;;;;;;;9.50;5.80;;;;;;;30.39;36.15;97037.53;6272006;22;20160;-68
2022/07/24 06:47:07;;;;;;;12.33;6.50;;;;;;;30.29;36.58;97045.06;6269655;22;20251;-70
2022/07/24 06:49:34;;;;;;;19.67;14.87;;;;;;;30.49;35.79;97032.69;6270293;22;20172;-72
2022/07/24 06:52:01;;;;;;;16.50;10.43;;;;;;;30.58;36.23;97038.72;6269280;22;20165;-71
2022/07/24 06:54:28;;;;;;;12.03;7.63;;;;;;;30.44;36.20;97027.09;6269658;22;20625;-71
2022/07/24 06:56:56;;;;;;;20.00;13.20;;;;;;;30.77;36.59;97027.31;6270249;22;20176;-70
2022/07/24 06:59:23;;;;;;;10.73;9.27;;;;;;;30.96;35.02;97032.00;6269199;22;20510;-70
2022/07/24 07:01:50;;;;;;;11.73;8.30;;;;;;;31.07;34.70;97022.59;6270264;22;20204;-73
2022/07/24 07:04:17;;;;;;;13.90;9.60;;;;;;;31.14;34.94;97020.78;6269216;22;20624;-70
2022/07/24 07:06:44;;;;;;;7.45;6.13;;;;;;;30.90;34.67;96994.50;6270246;22;20306;-71
2022/07/24 07:09:11;;;;;;;13.73;8.33;;;;;;;31.10;35.47;97011.47;6269094;22;20165;-72
2022/07/24 07:11:38;;;;;;;13.73;7.55;;;;;;;31.08;34.50;97008.16;6269811;22;20262;-71
2022/07/24 07:14:06;;;;;;;10.17;6.90;;;;;;;31.28;35.03;97015.25;6270063;22;20165;-71
2022/07/24 07:16:32;;;;;;;7.77;5.73;;;;;;;31.18;34.13;97014.00;6293358;22;20214;-71
2022/07/24 07:19:00;;;;;;;9.00;6.45;;;;;;;31.17;34.73;97017.69;6270098;22;20491;-72
2022/07/24 07:21:27;;;;;;;8.10;6.47;;;;;;;31.30;33.52;97015.88;6272806;22;20192;-71
2022/07/24 07:23:54;;;;;;;7.10;5.10;;;;;;;31.17;34.41;97007.81;6275462;22;20820;-72
2022/07/24 07:26:21;;;;;;;10.32;5.80;;;;;;;31.32;34.58;97005.00;6301680;22;20164;-71
2022/07/24 07:28:48;;;;;;;12.07;6.78;;;;;;;31.49;34.57;97008.19;6302527;22;20631;-70
2022/07/24 07:31:15;;;;;;;14.45;7.50;;;;;;;31.39;34.75;97005.03;6302871;22;20171;-71
2022/07/24 07:33:42;;;;;;;8.45;6.00;;;;;;;31.47;34.50;97010.25;6301893;22;20183;-70
2022/07/24 07:36:09;;;;;;;8.73;5.75;;;;;;;31.48;34.09;97002.00;6303765;22;20251;-72
2022/07/24 07:38:37;;;;;;;7.63;5.70;;;;;;;31.67;33.12;96997.72;6301815;22;20233;-71
2022/07/24 07:41:05;;;;;;;10.27;5.60;;;;;;;31.80;33.32;97000.44;6275573;22;20537;-71
2022/07/24 07:43:36;;;;;;;10.52;5.80;;;;;;;31.86;33.81;96996.94;6301827;22;20207;-71
2022/07/24 07:46:04;;;;;;;9.65;5.93;;;;;;;31.90;33.32;96999.00;6301532;22;20183;-74
2022/07/24 07:48:31;;;;;;;9.90;5.80;;;;;;;31.92;33.06;96996.94;6301963;22;20160;-73
2022/07/24 07:50:59;;;;;;;10.77;6.00;;;;;;;32.08;33.18;96999.28;6301378;22;20160;-72
2022/07/24 07:53:26;;;;;;;8.38;5.88;;;;;;;32.07;33.69;96992.25;6303011;22;20604;-70
2022/07/24 07:55:52;;;;;;;11.35;5.72;;;;;;;32.28;33.31;97001.09;6301506;22;20225;-71
2022/07/24 07:58:20;;;;;;;7.10;5.43;;;;;;;32.42;33.29;96994.72;6302564;22;20608;-71
2022/07/24 08:00:47;;;;;;;8.10;5.80;;;;;;;32.55;33.32;97002.78;6301557;22;20164;-71
2022/07/24 08:03:15;;;;;;;8.57;6.28;;;;;;;32.79;32.69;96994.06;6302226;22;20198;-71
2022/07/24 08:05:49;;;;;;;8.50;5.65;;;;;;;32.84;32.56;96996.94;6275294;22;20562;-70
2022/07/24 08:08:24;;;;;;;7.75;5.72;;;;;;;32.99;31.93;96984.16;6301720;22;20167;-74
2022/07/24 08:10:51;;;;;;;15.00;7.20;;;;;;;33.01;31.50;96994.66;6302967;22;20175;-72
2022/07/24 08:13:19;;;;;;;10.20;5.72;;;;;;;33.02;32.18;96994.44;6301185;22;20168;-71
2022/07/24 08:15:46;;;;;;;12.80;6.20;;;;;;;32.84;32.34;96991.59;6275724;22;20608;-71
2022/07/24 08:18:13;;;;;;;8.35;5.32;;;;;;;33.11;31.38;96989.69;6300127;22;20633;-72
2022/07/24 08:20:42;;;;;;;10.55;6.10;;;;;;;33.12;31.55;96986.78;6290059;22;20192;-73
2022/07/24 08:23:10;;;;;;;8.40;5.78;;;;;;;33.30;31.50;96986.94;6270036;22;20223;-72
2022/07/24 08:25:37;;;;;;;11.43;6.22;;;;;;;33.23;30.99;96986.13;6270337;22;20165;-71
2022/07/24 08:28:04;;;;;;;8.73;5.78;;;;;;;33.25;31.14;96986.72;6272079;22;20610;-71
2022/07/24 08:30:31;;;;;;;12.80;5.85;;;;;;;33.24;30.98;96982.38;6270167;22;20164;-71
2022/07/24 08:32:58;;;;;;;8.63;6.10;;;;;;;33.17;30.15;96980.78;6271399;22;20203;-71
2022/07/24 08:35:25;;;;;;;9.88;6.35;;;;;;;33.18;31.31;96972.50;6270660;22;20214;-71
2022/07/24 08:38:00;;;;;;;12.20;5.45;;;;;;;33.27;31.71;96981.97;6271031;22;20240;-73
2022/07/24 08:40:37;;;;;;;7.95;5.70;;;;;;;33.42;31.51;96969.09;6269971;22;20192;-73
2022/07/24 08:43:07;;;;;;;11.55;6.57;;;;;;;33.59;30.43;96974.81;6270439;22;20223;-71
2022/07/24 08:45:40;;;;;;;12.02;6.13;;;;;;;33.71;30.65;96977.63;6269758;22;20190;-71
2022/07/24 08:48:08;;;;;;;8.57;5.82;;;;;;;33.73;30.48;96967.50;6268206;22;20203;-70
2022/07/24 08:50:39;;;;;;;10.98;5.85;;;;;;;33.88;30.38;96957.28;6270882;22;20161;-71
2022/07/24 08:53:06;;;;;;;8.73;4.93;;;;;;;33.86;30.64;96962.03;6270955;22;20165;-71
2022/07/24 08:55:33;;;;;;;10.02;5.70;;;;;;;33.88;30.63;96957.28;6269905;22;20173;-71
2022/07/24 08:58:02;;;;;;;7.07;5.50;;;;;;;33.45;30.29;96959.75;6269642;22;20630;-71
2022/07/24 09:00:31;;;;;;;9.65;6.03;;;;;;;33.24;31.24;96958.22;6270091;22;20690;-74
2022/07/24 09:02:58;;;;;;;9.60;6.28;;;;;;;33.30;31.41;96959.25;6271237;22;20206;-73
2022/07/24 09:05:25;;;;;;;6.55;5.45;;;;;;;33.50;31.52;96950.06;6269989;22;20682;-73
2022/07/24 09:08:11;;;;;;;10.35;6.60;;;;;;;33.72;31.59;96947.06;6270645;22;20165;-71
2022/07/24 09:10:39;;;;;;;10.00;6.22;;;;;;;33.85;31.13;96957.69;6270843;22;20258;-71
2022/07/24 09:13:14;;;;;;;9.88;5.60;;;;;;;34.00;31.12;96950.19;6269260;22;20613;-70
2022/07/24 09:15:47;;;;;;;10.25;6.45;;;;;;;34.09;31.33;96938.09;6270865;22;20161;-73
2022/07/24 09:18:28;;;;;;;9.05;6.00;;;;;;;33.98;30.75;96947.69;6270493;22;20579;-71
2022/07/24 09:20:58;;;;;;;10.40;6.32;;;;;;;33.74;31.44;96947.66;6268438;22;20303;-73
2022/07/24 09:23:25;;;;;;;13.55;6.32;;;;;;;33.95;31.05;96939.22;6269124;22;20563;-70
2022/07/24 09:25:54;;;;;;;7.70;5.43;;;;;;;34.14;30.41;96938.28;6269325;22;20161;-70
2022/07/24 09:28:21;;;;;;;10.00;5.90;;;;;;;34.18;30.51;96936.78;6270861;22;20164;-70
2022/07/24 09:30:48;;;;;;;11.20;6.32;;;;;;;34.49;30.68;96927.84;6269599;22;20222;-71
2022/07/24 09:33:19;;;;;;;10.50;5.88;;;;;;;34.39;29.91;96925.63;6271171;22;20274;-71
2022/07/24 09:35:51;;;;;;;7.57;5.95;;;;;;;34.55;30.17;96933.16;6270398;22;20248;-70
2022/07/24 09:38:25;;;;;;;9.93;7.07;;;;;;;34.81;29.92;96924.78;6269785;22;20709;-70
2022/07/24 09:40:56;;;;;;;8.32;6.72;;;;;;;35.00;29.40;96923.75;6270584;22;20643;-71
2022/07/24 09:43:27;;;;;;;8.50;5.80;;;;;;;35.19;29.13;96929.94;6269040;22;20192;-71
2022/07/24 09:46:05;;;;;;;9.38;6.10;;;;;;;34.98;29.42;96920.47;6268535;22;20180;-71
2022/07/24 09:48:40;;;;;;;11.77;6.22;;;;;;;34.68;29.38;96922.25;6269885;22;20625;-71
2022/07/24 09:51:14;;;;;;;8.50;5.88;;;;;;;34.73;29.16;96916.19;6269725;22;20171;-71
2022/07/24 09:53:44;;;;;;;9.82;6.47;;;;;;;34.73;29.62;96917.00;6268722;22;20628;-70
2022/07/24 09:56:14;;;;;;;7.35;5.53;;;;;;;34.83;29.61;96914.59;6270065;22;20554;-71
2022/07/24 09:58:49;;;;;;;13.45;6.32;;;;;;;35.12;28.68;96908.47;6270670;22;20634;-71
2022/07/24 10:01:18;;;;;;;9.48;5.82;;;;;;;35.44;28.37;96900.19;6269905;22;20274;-71
2022/07/24 10:03:46;;;;;;;12.07;7.88;;;;;;;35.46;28.18;96896.25;6270403;22;20188;-71
2022/07/24 10:06:17;;;;;;;11.07;5.95;;;;;;;35.60;28.82;96891.47;6270880;22;20165;-71
2022/07/24 10:08:46;;;;;;;9.02;6.13;;;;;;;35.60;27.71;96891.47;6269625;22;20161;-71
2022/07/24 10:11:14;;;;;;;8.43;6.15;;;;;;;35.61;27.85;96885.84;6269091;22;20173;-71
2022/07/24 10:13:42;;;;;;;9.15;6.15;;;;;;;35.70;28.13;96891.72;6269493;22;20880;-72
2022/07/24 10:16:12;;;;;;;12.82;6.00;;;;;;;35.58;27.57;96885.50;6270713;22;20169;-71
2022/07/24 10:18:54;;;;;;;9.10;6.55;;;;;;;35.61;28.07;96879.66;6270045;22;20165;-71
2022/07/24 10:21:26;;;;;;;11.07;6.65;;;;;;;35.71;27.55;96882.59;6269608;22;20246;-71
2022/07/24 10:24:08;;;;;;;11.43;6.85;;;;;;;35.76;27.21;96878.16;6270394;22;20199;-71
2022/07/24 10:26:50;;;;;;;12.38;6.10;;;;;;;35.70;26.74;96872.84;6269640;22;20171;-71
2022/07/24 10:29:18;;;;;;;11.60;6.20;;;;;;;35.71;26.93;96871.81;6269419;22;20171;-73
2022/07/24 10:31:47;;;;;;;9.32;5.80;;;;;;;36.01;27.70;96875.28;6270279;22;20161;-73
2022/07/24 10:34:20;;;;;;;7.45;5.90;;;;;;;36.19;26.44;96864.38;6270061;22;20172;-73
2022/07/24 10:37:21;;;;;;;11.00;5.80;;;;;;;36.28;27.82;96860.28;6271698;22;20237;-74
2022/07/24 10:40:07;;;;;;;7.85;5.88;;;;;;;36.49;27.13;96861.56;6269419;22;20159;-73
2022/07/24 10:43:05;;;;;;;8.52;6.15;;;;;;;36.67;26.37;96856.84;6270492;22;20243;-73
2022/07/24 10:45:33;;;;;;;13.77;6.90;;;;;;;36.67;25.09;96854.16;6270846;22;20164;-74
2022/07/24 10:48:20;;;;;;;8.15;6.28;;;;;;;36.71;25.63;96849.06;6269486;22;20164;-73
2022/07/24 10:51:02;;;;;;;10.00;6.22;;;;;;;36.54;25.01;96849.00;6250845;22;20169;-74
2022/07/24 10:53:51;;;;;;;8.57;6.60;;;;;;;36.51;24.96;96841.38;6270384;22;20251;-74
2022/07/24 10:56:24;;;;;;;7.35;6.45;;;;;;;36.56;24.46;96830.69;6269090;22;20835;-76
2022/07/24 10:58:53;;;;;;;9.93;7.10;;;;;;;36.81;24.47;96837.69;6272798;22;20184;-72
2022/07/24 11:01:34;;;;;;;11.13;6.45;;;;;;;36.92;24.45;96839.53;6271226;22;20168;-74
2022/07/24 11:04:23;;;;;;;7.22;6.05;;;;;;;37.08;23.91;96836.06;6271922;22;20196;-74
2022/07/24 11:06:54;;;;;;;7.28;6.55;;;;;;;37.17;22.78;96831.91;6272396;22;20199;-73
2022/07/24 11:09:24;;;;;;;12.52;6.80;;;;;;;37.32;23.02;96829.50;6271117;22;20164;-73
2022/07/24 11:11:51;;;;;;;8.18;6.82;;;;;;;37.41;23.20;96817.25;6272343;22;20160;-74
2022/07/24 11:14:38;;;;;;;11.45;7.07;;;;;;;37.44;23.23;96817.59;6270946;22;20175;-71
2022/07/24 11:17:40;;;;;;;8.82;6.95;;;;;;;37.65;22.49;96807.13;6252041;22;20176;-73
2022/07/24 11:20:10;;;;;;;12.85;7.20;;;;;;;37.45;23.46;96804.88;6272688;22;20196;-72
2022/07/24 11:22:49;;;;;;;8.30;6.95;;;;;;;37.37;22.91;96810.69;6270263;22;20171;-73
2022/07/24 11:25:22;;;;;;;8.13;6.65;;;;;;;37.09;23.22;96803.44;6270821;22;20160;-71
2022/07/24 11:27:56;;;;;;;8.40;6.63;;;;;;;37.09;23.27;96799.91;6269825;22;20182;-71
2022/07/24 11:30:30;;;;;;;9.18;7.00;;;;;;;36.91;23.15;96800.91;6270041;22;20171;-70
2022/07/24 11:32:58;;;;;;;10.90;6.65;;;;;;;36.81;22.90;96791.78;6270419;22;20168;-73
2022/07/24 11:35:36;;;;;;;8.70;6.90;;;;;;;36.70;23.08;96788.84;6269763;22;20165;-71
2022/07/24 11:38:06;;;;;;;9.70;6.80;;;;;;;36.60;22.59;96798.66;6270623;22;20230;-72